Time;durP1;ratioP1;P1;durP2;ratioP2;P2;SDS_P1;SDS_P2;PMS_P1;PMS_P2;Temp;Humidity;BMP_temperature;BMP_pressure;BME280_temperature;BME280_humidity;BME280_pressure;Samples;Min_cycle;Max_cycle;Signal;HPM_P1;HPM_P2
2021/03/03 00:02:23;;;;;;;23.33;10.97;;;5.50;99.90;;;;;;20987843;28;20131;-77
2021/03/03 00:12:23;;;;;;;21.03;10.40;;;5.60;99.90;;;;;;20970606;28;20032;-77
2021/03/03 00:22:24;;;;;;;31.27;11.83;;;5.20;99.90;;;;;;20994219;28;20024;-76
2021/03/03 00:32:25;;;;;;;36.07;12.97;;;5.40;99.90;;;;;;20993228;28;20119;-76
2021/03/03 00:42:26;;;;;;;26.87;12.63;;;5.60;99.90;;;;;;20993279;28;20075;-76
2021/03/03 00:52:27;;;;;;;30.20;13.60;;;5.50;99.90;;;;;;20974714;28;20472;-76
2021/03/03 01:02:28;;;;;;;31.03;13.67;;;5.40;99.90;;;;;;20991541;28;20028;-76
2021/03/03 01:12:29;;;;;;;33.97;14.70;;;5.50;99.90;;;;;;20973571;28;20028;-76
2021/03/03 01:22:30;;;;;;;30.53;12.90;;;5.30;99.90;;;;;;20990666;28;20288;-75
2021/03/03 01:32:30;;;;;;;31.33;12.27;;;4.60;99.90;;;;;;20972497;28;20024;-76
2021/03/03 01:42:31;;;;;;;38.20;13.90;;;4.40;99.90;;;;;;20971671;28;20063;-76
2021/03/03 01:52:35;;;;;;;28.07;10.67;;;4.70;99.90;;;;;;20971604;28;20551;-76
2021/03/03 02:02:36;;;;;;;26.27;13.13;;;4.50;99.90;;;;;;20989104;28;20098;-77
2021/03/03 02:12:41;;;;;;;29.50;13.27;;;4.60;99.90;;;;;;20988580;28;20154;-76
2021/03/03 02:22:54;;;;;;;31.80;15.32;;;4.40;99.90;;;;;;20988375;28;20028;-76
2021/03/03 02:32:56;;;;;;;27.98;12.23;;;4.30;99.90;;;;;;20970192;28;20039;-76
2021/03/03 02:42:58;;;;;;;32.70;13.60;;;4.30;99.90;;;;;;20969891;28;20037;-76
2021/03/03 02:52:59;;;;;;;32.95;12.80;;;4.30;99.90;;;;;;20987523;28;20107;-76
2021/03/03 03:03:12;;;;;;;35.73;15.90;;;4.10;99.90;;;;;;20998258;28;20411;-75
2021/03/03 03:13:16;;;;;;;47.40;18.30;;;4.00;99.90;;;;;;21000746;28;20313;-76
2021/03/03 03:23:20;;;;;;;40.58;16.38;;;4.20;99.90;;;;;;21000133;28;20506;-77
2021/03/03 03:33:21;;;;;;;35.85;15.25;;;4.40;99.90;;;;;;20999543;28;20097;-77
2021/03/03 03:43:24;;;;;;;37.88;14.52;;;4.30;99.90;;;;;;20963924;28;20063;-76
2021/03/03 03:53:30;;;;;;;33.33;14.23;;;4.20;99.90;;;;;;20997462;28;20032;-76
2021/03/03 04:03:32;;;;;;;32.55;14.90;;;4.20;99.90;;;;;;20979066;28;20040;-76
2021/03/03 04:13:33;;;;;;;27.50;13.05;;;4.20;99.90;;;;;;20995666;28;20364;-76
2021/03/03 04:23:33;;;;;;;33.83;14.47;;;3.80;99.90;;;;;;20996463;28;20036;-76
2021/03/03 04:33:34;;;;;;;29.57;13.90;;;3.50;99.90;;;;;;20994617;28;20441;-76
2021/03/03 04:43:35;;;;;;;36.00;14.93;;;3.70;99.90;;;;;;20963679;28;20117;-76
2021/03/03 04:53:36;;;;;;;39.20;14.97;;;3.30;99.90;;;;;;20992784;28;20048;-76
2021/03/03 05:03:37;;;;;;;38.67;16.03;;;3.30;99.90;;;;;;20994179;28;20051;-74
2021/03/03 05:13:37;;;;;;;35.37;16.00;;;3.10;99.90;;;;;;20973924;28;20025;-73
2021/03/03 05:23:38;;;;;;;30.60;14.33;;;3.50;99.90;;;;;;20947639;28;20032;-73
2021/03/03 05:33:42;;;;;;;34.28;14.95;;;3.70;99.90;;;;;;20990455;28;20434;-74
2021/03/03 05:43:43;;;;;;;39.63;15.27;;;3.80;99.90;;;;;;20933237;28;20043;-75
2021/03/03 05:53:45;;;;;;;38.47;16.10;;;3.60;99.90;;;;;;20967999;28;20119;-74
2021/03/03 06:03:45;;;;;;;;;;;3.50;99.90;;;;;;20982040;28;20067;-73
2021/03/03 06:13:46;;;;;;;32.50;15.73;;;3.20;99.90;;;;;;20943442;28;19917;-74
2021/03/03 06:24:04;;;;;;;43.90;18.47;;;3.10;99.90;;;;;;20954074;28;20123;-74
2021/03/03 06:34:13;;;;;;;44.22;17.77;;;3.00;99.90;;;;;;20944648;28;20112;-77
2021/03/03 06:44:13;;;;;;;47.15;19.38;;;3.10;99.90;;;;;;20980977;28;20041;-75
2021/03/03 06:54:19;;;;;;;34.93;15.43;;;3.00;99.90;;;;;;20995826;28;20094;-75
2021/03/03 07:04:31;;;;;;;34.03;15.65;;;3.20;99.90;;;;;;20984299;28;20865;-77
2021/03/03 07:14:33;;;;;;;36.67;16.02;;;3.40;99.90;;;;;;21001126;28;20074;-75
2021/03/03 07:24:34;;;;;;;;;;;3.40;99.90;;;;;;21000406;28;20064;-76
2021/03/03 07:34:36;;;;;;;37.72;16.08;;;3.40;99.90;;;;;;20999003;28;20022;-75
2021/03/03 07:44:41;;;;;;;38.42;16.88;;;3.30;99.90;;;;;;20997836;28;20043;-74
2021/03/03 07:54:42;;;;;;;38.60;16.98;;;3.30;99.90;;;;;;20998112;28;20040;-75
2021/03/03 08:04:43;;;;;;;39.58;18.05;;;3.30;99.90;;;;;;20998452;28;20414;-75
2021/03/03 08:14:44;;;;;;;48.53;17.58;;;3.60;99.90;;;;;;20998346;28;20372;-76
2021/03/03 08:24:45;;;;;;;38.58;16.40;;;3.80;99.90;;;;;;21002603;28;20052;-76
2021/03/03 08:34:51;;;;;;;43.53;18.30;;;4.00;99.90;;;;;;20995659;28;20066;-74
2021/03/03 08:45:04;;;;;;;43.58;18.70;;;4.20;99.90;;;;;;20995492;28;20028;-75
2021/03/03 08:55:25;;;;;;;43.47;18.65;;;4.30;99.90;;;;;;20975383;28;20610;-76
2021/03/03 09:05:32;;;;;;;40.75;19.23;;;4.70;99.90;;;;;;20977558;28;20391;-76
2021/03/03 09:15:32;;;;;;;42.83;19.65;;;4.90;99.90;;;;;;20994108;28;20036;-76
2021/03/03 09:25:33;;;;;;;44.17;20.07;;;5.10;99.90;;;;;;20994975;28;20683;-76
2021/03/03 09:35:34;;;;;;;40.50;18.63;;;5.30;99.90;;;;;;20974651;28;20490;-76
2021/03/03 09:45:35;;;;;;;37.05;18.45;;;5.60;99.90;;;;;;20992647;28;20036;-75
2021/03/03 09:55:38;;;;;;;31.50;14.03;;;5.80;99.90;;;;;;20993864;28;20025;-75
2021/03/03 10:05:40;;;;;;;38.03;16.90;;;6.20;99.90;;;;;;20994929;28;20438;-76
2021/03/03 10:15:41;;;;;;;41.80;17.27;;;6.50;99.90;;;;;;20988826;28;20068;-76
2021/03/03 10:25:46;;;;;;;39.37;16.23;;;6.60;99.90;;;;;;21008897;28;20028;-76
2021/03/03 10:35:49;;;;;;;36.28;17.77;;;6.90;99.90;;;;;;21004295;28;20035;-76
2021/03/03 10:46:09;;;;;;;31.80;17.23;;;7.20;99.90;;;;;;21003304;28;20033;-76
2021/03/03 10:56:25;;;;;;;36.30;16.70;;;7.50;99.90;;;;;;21002940;28;20085;-76
2021/03/03 11:06:28;;;;;;;40.72;17.00;;;7.80;99.90;;;;;;21001622;28;20035;-75
2021/03/03 11:16:29;;;;;;;34.75;17.17;;;8.20;99.90;;;;;;20999587;28;20118;-77
2021/03/03 11:26:30;;;;;;;36.67;18.57;;;8.30;99.90;;;;;;20999445;28;20029;-75
2021/03/03 11:36:31;;;;;;;37.77;17.37;;;8.50;99.90;;;;;;20999960;28;20121;-75
2021/03/03 11:46:32;;;;;;;48.83;16.87;;;8.70;99.90;;;;;;20998680;28;20033;-76
2021/03/03 11:56:33;;;;;;;35.72;17.90;;;8.70;99.90;;;;;;20995694;28;20039;-76
2021/03/03 12:06:34;;;;;;;34.27;18.73;;;9.20;99.90;;;;;;20978532;28;20037;-77
2021/03/03 12:16:35;;;;;;;38.80;18.77;;;9.40;99.90;;;;;;20998152;28;20037;-76
2021/03/03 12:26:36;;;;;;;38.30;18.43;;;9.60;99.90;;;;;;21001316;28;20024;-76
2021/03/03 12:36:36;;;;;;;38.63;19.23;;;9.50;99.90;;;;;;20976859;28;20063;-76
2021/03/03 12:46:37;;;;;;;38.93;18.03;;;9.90;99.90;;;;;;20993513;28;20096;-77
2021/03/03 12:56:38;;;;;;;36.83;18.80;;;10.30;99.90;;;;;;20993118;28;20422;-76
2021/03/03 13:06:39;;;;;;;34.50;18.37;;;10.40;99.90;;;;;;20992146;28;20046;-76
2021/03/03 13:16:40;;;;;;;30.17;17.70;;;10.20;99.90;;;;;;20992093;28;20449;-76
2021/03/03 13:26:41;;;;;;;33.83;17.70;;;10.50;99.90;;;;;;20991226;28;20035;-76
2021/03/03 13:36:43;;;;;;;45.37;21.23;;;10.60;99.90;;;;;;20991005;28;20062;-76
2021/03/03 13:46:44;;;;;;;36.33;18.03;;;10.70;99.90;;;;;;20989448;28;20495;-75
2021/03/03 13:56:45;;;;;;;35.95;18.83;;;10.60;99.90;;;;;;20990019;28;20293;-76
2021/03/03 14:06:45;;;;;;;41.10;19.43;;;10.80;99.90;;;;;;20971872;28;20036;-76
2021/03/03 14:16:46;;;;;;;41.30;19.30;;;10.80;99.90;;;;;;20990590;28;20029;-76
2021/03/03 14:26:51;;;;;;;42.20;20.67;;;10.70;99.90;;;;;;20877177;22;20595;-76
2021/03/03 14:36:51;;;;;;;36.22;19.95;;;10.80;99.90;;;;;;20824020;28;20097;-77
2021/03/03 14:46:54;;;;;;;42.83;19.97;;;10.50;99.90;;;;;;20824502;28;20065;-75
2021/03/03 14:56:54;;;;;;;43.75;20.92;;;10.50;99.90;;;;;;20832185;28;20056;-76
2021/03/03 15:06:55;;;;;;;44.40;22.20;;;10.50;99.90;;;;;;20836640;28;20071;-76
2021/03/03 15:16:56;;;;;;;39.35;19.85;;;10.40;99.90;;;;;;20835884;28;20032;-76
2021/03/03 15:26:57;;;;;;;43.77;21.80;;;10.40;99.90;;;;;;20817156;28;20087;-76
2021/03/03 15:36:58;;;;;;;50.03;21.37;;;10.40;99.90;;;;;;20798326;28;20432;-75
2021/03/03 15:46:59;;;;;;;41.90;21.40;;;10.10;99.90;;;;;;20823441;28;20029;-76
2021/03/03 15:57:00;;;;;;;47.20;21.35;;;9.90;99.90;;;;;;20842657;28;20515;-75
2021/03/03 16:07:01;;;;;;;48.23;24.90;;;9.40;99.90;;;;;;20742610;28;20037;-75
2021/03/03 16:17:02;;;;;;;42.23;23.33;;;8.70;99.90;;;;;;20813092;28;20083;-75
2021/03/03 16:27:03;;;;;;;59.03;24.00;;;8.40;99.90;;;;;;20786053;28;20499;-75
2021/03/03 16:37:04;;;;;;;53.50;28.10;;;8.20;99.90;;;;;;20785785;28;20037;-75
2021/03/03 16:47:05;;;;;;;67.67;30.87;;;8.20;99.90;;;;;;20793077;28;20461;-75
2021/03/03 16:57:07;;;;;;;58.07;27.57;;;8.00;99.90;;;;;;20814951;28;20041;-76
2021/03/03 17:07:08;;;;;;;57.65;24.65;;;7.30;99.90;;;;;;20850983;28;20349;-77
2021/03/03 17:17:09;;;;;;;65.13;24.57;;;7.40;99.90;;;;;;20885290;28;20041;-77
2021/03/03 17:27:10;;;;;;;62.63;28.37;;;7.10;99.90;;;;;;20845964;28;20411;-77
2021/03/03 17:37:11;;;;;;;73.88;34.60;;;6.90;99.90;;;;;;20797239;28;20430;-77
2021/03/03 17:47:12;;;;;;;61.83;29.57;;;6.90;99.90;;;;;;20864834;28;20033;-77
2021/03/03 17:57:12;;;;;;;53.30;24.40;;;6.80;99.90;;;;;;20829545;28;20032;-77
2021/03/03 18:07:13;;;;;;;54.50;26.47;;;6.70;99.90;;;;;;20783770;28;20511;-76
2021/03/03 18:17:14;;;;;;;61.63;30.40;;;6.70;99.90;;;;;;20858465;28;20033;-76
2021/03/03 18:27:15;;;;;;;53.43;23.73;;;6.30;99.90;;;;;;20802854;28;20041;-77
2021/03/03 18:37:16;;;;;;;60.13;24.40;;;6.50;99.90;;;;;;20823195;28;20496;-77
2021/03/03 18:47:17;;;;;;;79.30;34.07;;;6.30;99.90;;;;;;20872173;28;20037;-77
2021/03/03 18:57:17;;;;;;;83.77;34.30;;;6.20;99.90;;;;;;20884928;28;20037;-76
2021/03/03 19:07:18;;;;;;;49.20;24.00;;;6.10;99.90;;;;;;20902003;28;20079;-76
2021/03/03 19:17:23;;;;;;;73.37;34.37;;;6.10;99.90;;;;;;20867150;28;20037;-77
2021/03/03 19:27:24;;;;;;;53.17;24.92;;;6.10;99.90;;;;;;20814514;28;20128;-76
2021/03/03 19:37:26;;;;;;;43.97;22.50;;;6.20;99.90;;;;;;20829005;28;20037;-76
2021/03/03 19:47:27;;;;;;;45.90;22.90;;;6.00;99.90;;;;;;20868206;28;20040;-76
2021/03/03 19:57:27;;;;;;;47.37;21.63;;;6.10;99.90;;;;;;20874641;28;20132;-76
2021/03/03 20:07:28;;;;;;;42.43;20.30;;;6.20;99.90;;;;;;20846529;28;20069;-77
2021/03/03 20:17:29;;;;;;;40.03;18.93;;;6.20;99.90;;;;;;20815623;28;20099;-77
2021/03/03 20:27:30;;;;;;;46.03;19.17;;;6.20;99.90;;;;;;20839824;22;20047;-76
2021/03/03 20:37:31;;;;;;;38.73;18.70;;;6.30;99.90;;;;;;20957674;28;20033;-73
2021/03/03 20:47:32;;;;;;;35.90;19.47;;;6.10;99.90;;;;;;20946439;28;20047;-74
2021/03/03 20:57:33;;;;;;;41.50;19.10;;;5.90;99.90;;;;;;20942853;28;20040;-76
2021/03/03 21:07:35;;;;;;;38.80;19.47;;;5.80;99.90;;;;;;20897906;28;20132;-74
2021/03/03 21:17:36;;;;;;;45.85;19.00;;;5.70;99.90;;;;;;20891774;28;20040;-77
2021/03/03 21:27:36;;;;;;;41.57;19.80;;;5.70;99.90;;;;;;20895254;28;20032;-76
2021/03/03 21:37:38;;;;;;;38.67;18.03;;;5.50;99.90;;;;;;20951090;28;20040;-76
2021/03/03 21:47:40;;;;;;;43.33;19.80;;;5.60;99.90;;;;;;20968132;28;20040;-76
2021/03/03 21:57:41;;;;;;;37.72;18.88;;;5.50;99.90;;;;;;20975191;28;20454;-74
2021/03/03 22:07:42;;;;;;;42.67;18.05;;;5.30;99.90;;;;;;20968816;28;20833;-75
2021/03/03 22:17:43;;;;;;;44.50;18.98;;;5.40;99.90;;;;;;20988725;28;20051;-74
2021/03/03 22:27:44;;;;;;;42.17;19.90;;;5.50;99.90;;;;;;20987285;28;20058;-75
2021/03/03 22:37:46;;;;;;;44.53;20.60;;;5.30;99.90;;;;;;20986026;28;20040;-75
2021/03/03 22:47:46;;;;;;;50.25;21.27;;;5.10;99.90;;;;;;20985652;28;20119;-75
2021/03/03 22:57:47;;;;;;;49.00;22.23;;;5.10;99.90;;;;;;20970036;28;20079;-75
2021/03/03 23:07:48;;;;;;;52.50;21.57;;;5.30;99.90;;;;;;20991836;28;20586;-76
2021/03/03 23:17:49;;;;;;;47.60;21.03;;;5.60;99.90;;;;;;20987099;28;20082;-76
2021/03/03 23:27:50;;;;;;;46.00;21.87;;;5.60;99.90;;;;;;20964746;28;20541;-76
2021/03/03 23:37:51;;;;;;;51.30;22.90;;;5.60;99.90;;;;;;20964741;28;20403;-74
2021/03/03 23:47:52;;;;;;;47.20;21.80;;;5.40;99.90;;;;;;20934974;28;20100;-75
2021/03/03 23:57:53;;;;;;;40.95;20.67;;;5.50;99.90;;;;;;20915259;28;20025;-76
